Time;durP1;ratioP1;P1;durP2;ratioP2;P2;SDS_P1;SDS_P2;PMS_P1;PMS_P2;Temp;Humidity;BMP_temperature;BMP_pressure;BME280_temperature;BME280_humidity;BME280_pressure;Samples;Min_cycle;Max_cycle;Signal;HPM_P1;HPM_P2
2023/04/03 00:01:57;;;;;;;4.62;3.45;;;0.20;99.90;;;;;;7279925;32;20373;-55
2023/04/03 00:06:00;;;;;;;8.35;3.62;;;0.20;99.90;;;;;;7264279;32;20161;-55
2023/04/03 00:10:02;;;;;;;6.60;3.65;;;0.20;99.90;;;;;;7273811;32;20142;-55
2023/04/03 00:14:04;;;;;;;4.47;3.40;;;0.20;99.90;;;;;;7279329;32;20111;-55
2023/04/03 00:18:06;;;;;;;5.30;3.50;;;0.10;99.90;;;;;;7282017;32;20511;-55
2023/04/03 00:22:08;;;;;;;8.15;3.67;;;0.10;99.90;;;;;;7277716;32;20120;-56
2023/04/03 00:26:10;;;;;;;4.97;3.53;;;0.10;99.90;;;;;;7276370;32;20756;-55
2023/04/03 00:30:15;;;;;;;8.60;3.90;;;0.10;99.90;;;;;;7283877;32;20112;-55
2023/04/03 00:34:17;;;;;;;7.70;3.85;;;0.00;99.90;;;;;;7260909;32;20144;-55
2023/04/03 00:38:19;;;;;;;5.93;3.85;;;0.00;99.90;;;;;;7275678;32;20121;-55
2023/04/03 00:42:21;;;;;;;8.88;3.95;;;0.00;99.90;;;;;;7279520;32;20163;-55
2023/04/03 00:46:22;;;;;;;6.20;4.10;;;0.00;99.90;;;;;;7276008;32;20111;-55
2023/04/03 00:50:24;;;;;;;7.70;4.05;;;-0.10;99.90;;;;;;7280869;32;20567;-56
2023/04/03 00:54:26;;;;;;;7.57;4.55;;;-0.10;99.90;;;;;;7275684;32;20166;-56
2023/04/03 00:58:36;;;;;;;6.35;4.30;;;-0.10;99.90;;;;;;7287051;32;20138;-56
2023/04/03 01:02:40;;;;;;;7.53;4.50;;;-0.10;99.90;;;;;;7274902;32;20115;-55
2023/04/03 01:06:42;;;;;;;6.05;4.80;;;-0.10;99.90;;;;;;7258497;32;20175;-56
2023/04/03 01:10:44;;;;;;;7.15;4.32;;;-0.10;99.90;;;;;;7263162;32;20176;-55
2023/04/03 01:14:49;;;;;;;8.93;4.87;;;-0.10;99.90;;;;;;7262512;32;20123;-56
2023/04/03 01:18:50;;;;;;;7.72;4.55;;;-0.20;99.90;;;;;;7257653;32;20390;-55
2023/04/03 01:23:09;;;;;;;10.98;4.62;;;-0.20;99.90;;;;;;7263393;32;20288;-55
2023/04/03 01:27:11;;;;;;;7.05;4.60;;;-0.20;99.90;;;;;;7264900;32;20229;-55
2023/04/03 01:31:32;;;;;;;7.37;4.82;;;-0.20;99.90;;;;;;7261284;32;20131;-55
2023/04/03 01:35:34;;;;;;;8.13;4.97;;;-0.20;99.90;;;;;;7258611;32;20128;-55
2023/04/03 01:39:35;;;;;;;5.55;4.18;;;-0.20;99.90;;;;;;7265687;32;20135;-55
2023/04/03 01:43:37;;;;;;;10.20;5.18;;;-0.20;99.90;;;;;;7262548;32;20323;-56
2023/04/03 01:47:39;;;;;;;8.05;4.65;;;-0.30;99.90;;;;;;7265618;32;20217;-55
2023/04/03 01:51:41;;;;;;;6.53;4.87;;;-0.30;99.90;;;;;;7266022;32;20464;-55
2023/04/03 01:55:42;;;;;;;7.43;4.47;;;-0.30;99.90;;;;;;7259841;32;20250;-55
2023/04/03 01:59:45;;;;;;;7.20;5.00;;;-0.30;99.90;;;;;;7258208;32;20612;-54
2023/04/03 02:03:46;;;;;;;5.97;4.87;;;-0.40;99.90;;;;;;7259015;32;20196;-55
2023/04/03 02:07:48;;;;;;;9.35;4.75;;;-0.40;99.90;;;;;;7282770;32;20228;-55
2023/04/03 02:11:50;;;;;;;8.57;5.37;;;-0.50;99.90;;;;;;7276519;32;20152;-56
2023/04/03 02:15:52;;;;;;;6.55;5.30;;;-0.40;99.90;;;;;;7261111;32;20231;-55
2023/04/03 02:19:54;;;;;;;6.47;5.07;;;-0.40;99.90;;;;;;7287684;32;20281;-55
2023/04/03 02:23:56;;;;;;;6.65;5.15;;;-0.50;99.90;;;;;;7260318;32;20318;-55
2023/04/03 02:27:58;;;;;;;6.35;5.10;;;-0.50;99.90;;;;;;7280803;32;20153;-55
2023/04/03 02:31:59;;;;;;;8.43;5.40;;;-0.50;99.90;;;;;;7276208;32;20154;-55
2023/04/03 02:36:04;;;;;;;10.13;6.07;;;-0.50;99.90;;;;;;7277115;32;20522;-55
2023/04/03 02:40:07;;;;;;;9.57;5.97;;;-0.40;99.90;;;;;;7279685;32;20607;-55
2023/04/03 02:44:10;;;;;;;10.30;6.10;;;-0.40;99.90;;;;;;7289621;32;20243;-55
2023/04/03 02:48:11;;;;;;;8.15;5.90;;;-0.30;99.90;;;;;;7268700;32;20198;-55
2023/04/03 02:52:14;;;;;;;11.90;6.22;;;-0.30;99.90;;;;;;7276164;32;20531;-55
2023/04/03 02:56:17;;;;;;;11.30;6.57;;;-0.20;99.90;;;;;;7279741;32;20138;-56
2023/04/03 03:00:20;;;;;;;8.52;6.53;;;-0.10;99.90;;;;;;7264094;32;20138;-55
2023/04/03 03:04:21;;;;;;;13.43;6.37;;;0.00;99.90;;;;;;7279648;32;20203;-55
2023/04/03 03:08:23;;;;;;;11.30;6.72;;;0.10;99.90;;;;;;7288859;32;20468;-55
2023/04/03 03:12:25;;;;;;;7.35;5.72;;;0.10;99.90;;;;;;7280629;32;20126;-55
2023/04/03 03:16:27;;;;;;;7.18;5.40;;;0.10;99.90;;;;;;7291437;32;21192;-55
2023/04/03 03:20:28;;;;;;;12.02;6.18;;;0.10;99.90;;;;;;7295330;32;20120;-55
2023/04/03 03:24:30;;;;;;;8.02;5.35;;;0.10;99.90;;;;;;7288164;32;20108;-55
2023/04/03 03:28:32;;;;;;;10.88;5.45;;;0.10;99.90;;;;;;7285906;32;20150;-56
2023/04/03 03:32:34;;;;;;;9.50;5.60;;;0.20;99.90;;;;;;7287583;32;20107;-56
2023/04/03 03:36:36;;;;;;;9.30;4.43;;;0.30;99.90;;;;;;7288652;32;20120;-55
2023/04/03 03:40:38;;;;;;;9.68;4.72;;;0.30;99.90;;;;;;7267328;32;20112;-56
2023/04/03 03:44:40;;;;;;;6.65;4.10;;;0.40;99.90;;;;;;7291697;32;20177;-56
2023/04/03 03:48:41;;;;;;;7.55;3.80;;;0.40;99.90;;;;;;7270773;32;20717;-53
2023/04/03 03:52:44;;;;;;;6.72;3.72;;;0.30;99.90;;;;;;7286485;32;20259;-53
2023/04/03 03:56:46;;;;;;;8.50;4.25;;;0.40;99.90;;;;;;7287456;32;20182;-54
2023/04/03 04:00:47;;;;;;;7.62;4.22;;;0.40;99.90;;;;;;7291611;32;20475;-54
2023/04/03 04:04:49;;;;;;;6.75;3.20;;;0.40;99.90;;;;;;7281040;32;20109;-55
2023/04/03 04:08:51;;;;;;;6.57;3.53;;;0.30;99.90;;;;;;7268214;32;20139;-54
2023/04/03 04:12:54;;;;;;;6.97;3.35;;;0.40;99.90;;;;;;7281684;32;20141;-54
2023/04/03 04:16:59;;;;;;;10.57;3.23;;;0.40;99.90;;;;;;7277624;32;20108;-55
2023/04/03 04:21:00;;;;;;;6.68;3.25;;;0.40;99.90;;;;;;7282798;32;20317;-54
2023/04/03 04:25:02;;;;;;;12.10;3.20;;;0.50;99.90;;;;;;7282126;32;20264;-54
2023/04/03 04:29:04;;;;;;;6.03;2.97;;;0.40;99.90;;;;;;7279009;32;20109;-55
2023/04/03 04:33:06;;;;;;;7.28;3.78;;;0.50;99.90;;;;;;7277645;32;20232;-55
2023/04/03 04:37:08;;;;;;;7.50;3.10;;;0.50;99.90;;;;;;7280093;32;20166;-55
2023/04/03 04:41:10;;;;;;;8.73;2.70;;;0.40;99.90;;;;;;7276289;32;20136;-54
2023/04/03 04:45:12;;;;;;;7.12;3.37;;;0.40;99.90;;;;;;7275989;32;20241;-54
2023/04/03 04:49:14;;;;;;;5.97;3.08;;;0.50;99.90;;;;;;7282805;32;20112;-54
2023/04/03 04:53:15;;;;;;;8.23;2.70;;;0.40;99.90;;;;;;7275316;32;20134;-54
2023/04/03 04:57:17;;;;;;;5.40;3.33;;;0.40;99.90;;;;;;7283774;32;20162;-55
2023/04/03 05:01:19;;;;;;;7.12;2.72;;;0.30;99.90;;;;;;7276325;32;20130;-54
2023/04/03 05:05:22;;;;;;;14.52;3.60;;;0.30;99.90;;;;;;7280631;32;20104;-55
2023/04/03 05:09:23;;;;;;;6.75;2.62;;;0.30;99.90;;;;;;7265358;32;20158;-55
2023/04/03 05:13:25;;;;;;;13.45;5.93;;;0.30;99.90;;;;;;7280485;32;20647;-55
2023/04/03 05:17:27;;;;;;;6.37;3.17;;;0.40;99.90;;;;;;7281252;32;20282;-56
2023/04/03 05:21:31;;;;;;;9.35;2.70;;;0.30;99.90;;;;;;7280566;32;20513;-55
2023/04/03 05:25:34;;;;;;;9.15;2.72;;;0.30;99.90;;;;;;7270543;32;20108;-56
2023/04/03 05:29:36;;;;;;;7.45;3.03;;;0.30;99.90;;;;;;7278548;32;20227;-56
2023/04/03 05:33:38;;;;;;;8.07;2.58;;;0.30;99.90;;;;;;7271025;32;20205;-56
2023/04/03 05:37:39;;;;;;;12.10;3.03;;;0.30;99.90;;;;;;7273897;32;20195;-55
2023/04/03 05:41:41;;;;;;;11.10;3.50;;;0.30;99.90;;;;;;7276190;32;20209;-56
2023/04/03 05:45:43;;;;;;;7.50;3.30;;;0.40;99.90;;;;;;7272648;32;20112;-55
2023/04/03 05:49:47;;;;;;;4.95;2.15;;;0.40;99.90;;;;;;7271035;32;20195;-56
2023/04/03 05:53:59;;;;;;;5.72;2.55;;;0.40;99.90;;;;;;7273768;32;20542;-56
2023/04/03 05:58:01;;;;;;;4.60;2.10;;;0.40;99.90;;;;;;7260241;32;20130;-57
2023/04/03 06:02:03;;;;;;;6.05;2.78;;;0.50;99.90;;;;;;7280020;32;20840;-55
2023/04/03 06:06:05;;;;;;;6.43;2.75;;;0.50;99.90;;;;;;7267687;32;20477;-55
2023/04/03 06:10:08;;;;;;;8.25;2.37;;;0.60;99.90;;;;;;7271263;32;20120;-55
2023/04/03 06:14:10;;;;;;;5.55;2.05;;;0.60;99.90;;;;;;7275552;32;20629;-56
2023/04/03 06:18:12;;;;;;;8.07;2.30;;;0.60;99.90;;;;;;7265216;32;20162;-56
2023/04/03 06:22:15;;;;;;;8.07;2.05;;;0.80;99.90;;;;;;7282429;32;20132;-56
2023/04/03 06:26:17;;;;;;;5.78;2.05;;;0.90;99.90;;;;;;7275894;32;20741;-56
2023/04/03 06:30:19;;;;;;;7.57;2.78;;;0.90;99.90;;;;;;7270732;32;20211;-55
2023/04/03 06:34:21;;;;;;;10.35;2.10;;;1.00;99.90;;;;;;7273467;32;20147;-57
2023/04/03 06:38:22;;;;;;;5.28;1.77;;;1.00;99.90;;;;;;7278552;32;20350;-55
2023/04/03 06:42:24;;;;;;;7.70;2.12;;;1.10;99.90;;;;;;7278818;32;20134;-56
2023/04/03 06:46:27;;;;;;;8.65;2.15;;;1.20;99.90;;;;;;7279345;32;20183;-56
2023/04/03 06:50:28;;;;;;;6.32;1.92;;;1.20;99.90;;;;;;7278367;32;20143;-56
2023/04/03 06:54:30;;;;;;;4.97;1.67;;;1.30;99.90;;;;;;7278942;32;20179;-56
2023/04/03 06:58:32;;;;;;;6.62;1.92;;;1.30;99.90;;;;;;7278530;32;20693;-56
2023/04/03 07:02:34;;;;;;;6.40;1.77;;;1.40;99.90;;;;;;7264903;32;20130;-55
2023/04/03 07:06:36;;;;;;;5.12;2.05;;;1.50;99.90;;;;;;7275804;32;20108;-55
2023/04/03 07:10:38;;;;;;;9.13;2.40;;;1.50;99.90;;;;;;7276960;32;20305;-55
2023/04/03 07:14:41;;;;;;;6.50;1.73;;;1.60;99.90;;;;;;7278229;32;20487;-55
2023/04/03 07:18:42;;;;;;;4.93;1.50;;;1.70;99.90;;;;;;7275063;32;20112;-55
2023/04/03 07:22:44;;;;;;;7.15;2.20;;;1.80;99.90;;;;;;7279486;32;20125;-55
2023/04/03 07:26:50;;;;;;;9.00;2.08;;;1.90;99.90;;;;;;7275758;32;20143;-54
2023/04/03 07:30:53;;;;;;;9.18;2.12;;;2.00;99.90;;;;;;7277032;32;20752;-55
2023/04/03 07:34:55;;;;;;;6.05;1.83;;;2.10;99.90;;;;;;7277115;32;20277;-54
2023/04/03 07:38:57;;;;;;;5.37;1.95;;;2.20;99.90;;;;;;7267206;32;20251;-55
2023/04/03 07:42:59;;;;;;;6.00;1.80;;;2.30;99.90;;;;;;7276886;32;20147;-54
2023/04/03 07:47:01;;;;;;;6.90;1.65;;;2.40;99.90;;;;;;7278549;32;20112;-55
2023/04/03 07:51:04;;;;;;;4.50;1.35;;;2.60;99.90;;;;;;7265672;32;20272;-54
2023/04/03 07:55:06;;;;;;;7.00;1.80;;;2.80;99.90;;;;;;7287704;32;20151;-55
2023/04/03 07:59:10;;;;;;;5.43;1.83;;;3.20;99.90;;;;;;7276866;32;20206;-55
2023/04/03 08:03:12;;;;;;;4.45;1.23;;;3.60;99.90;;;;;;7274671;32;20247;-55
2023/04/03 08:07:14;;;;;;;4.68;1.48;;;4.00;99.90;;;;;;7279343;32;20130;-57
2023/04/03 08:11:18;;;;;;;3.62;1.20;;;4.60;99.90;;;;;;7274813;32;20209;-56
2023/04/03 08:15:20;;;;;;;4.07;1.85;;;4.70;99.90;;;;;;7276500;32;20132;-56
2023/04/03 08:19:22;;;;;;;3.70;1.27;;;5.00;99.90;;;;;;7259075;32;20127;-56
2023/04/03 08:23:27;;;;;;;4.47;1.55;;;5.50;99.90;;;;;;7271344;32;20124;-56
2023/04/03 08:27:29;;;;;;;3.78;1.05;;;5.20;99.90;;;;;;7272134;32;20162;-56
2023/04/03 08:31:31;;;;;;;4.05;1.27;;;5.10;99.90;;;;;;7275622;32;20174;-56
2023/04/03 08:35:32;;;;;;;5.85;1.10;;;5.40;99.90;;;;;;7280666;32;20387;-56
2023/04/03 08:39:37;;;;;;;5.40;1.45;;;5.50;99.90;;;;;;7283883;32;20300;-57
2023/04/03 08:44:01;;;;;;;2.08;0.82;;;5.50;99.90;;;;;;7272871;32;20541;-56
2023/04/03 08:48:12;;;;;;;2.92;0.95;;;5.90;99.90;;;;;;7275532;32;20254;-56
2023/04/03 08:52:51;;;;;;;3.70;1.00;;;5.80;99.90;;;;;;7273949;32;20318;-56
2023/04/03 08:56:54;;;;;;;2.97;1.10;;;6.10;99.90;;;;;;7260449;32;20172;-55
2023/04/03 09:01:07;;;;;;;3.55;1.27;;;6.30;99.90;;;;;;7280184;32;20170;-56
2023/04/03 09:05:14;;;;;;;3.28;0.90;;;6.40;99.90;;;;;;7281759;32;20202;-56
2023/04/03 09:09:40;;;;;;;4.80;1.27;;;6.40;99.90;;;;;;7272033;32;20256;-57
2023/04/03 09:14:24;;;;;;;2.97;0.88;;;7.00;99.90;;;;;;7273731;32;20112;-56
2023/04/03 09:18:42;;;;;;;3.30;0.90;;;7.10;99.90;;;;;;7260285;32;20212;-56
2023/04/03 09:22:44;;;;;;;4.55;1.20;;;7.60;99.90;;;;;;7272915;32;20328;-56
2023/04/03 09:26:59;;;;;;;3.15;1.00;;;7.70;99.90;;;;;;7272388;32;20112;-56
2023/04/03 09:31:05;;;;;;;3.42;0.90;;;7.50;98.80;;;;;;7278892;32;20232;-57
2023/04/03 09:35:25;;;;;;;;;;;8.30;99.90;;;;;;7276816;32;20728;-56
2023/04/03 09:39:53;;;;;;;;;;;8.30;98.60;;;;;;7276923;32;20042;-56
2023/04/03 09:43:55;;;;;;;2.50;0.80;;;7.80;99.10;;;;;;7259590;32;20017;-56
2023/04/03 09:48:08;;;;;;;4.37;0.93;;;8.20;96.10;;;;;;7277412;32;20249;-55
2023/04/03 09:52:24;;;;;;;3.85;0.88;;;8.70;94.70;;;;;;7261507;32;20159;-57
2023/04/03 09:56:28;;;;;;;1.83;0.80;;;9.70;92.40;;;;;;7270945;32;20108;-57
2023/04/03 10:00:35;;;;;;;3.37;1.00;;;11.20;92.70;;;;;;7270186;32;20127;-56
2023/04/03 10:04:40;;;;;;;4.70;1.12;;;10.60;87.60;;;;;;7272289;32;20135;-56
2023/04/03 10:08:42;;;;;;;2.20;0.80;;;10.40;75.60;;;;;;7274809;32;20147;-56
2023/04/03 10:12:44;;;;;;;2.22;0.80;;;10.70;75.20;;;;;;7274181;32;20275;-56
2023/04/03 10:16:57;;;;;;;3.08;0.80;;;11.70;74.60;;;;;;7277062;32;20172;-56
2023/04/03 10:21:25;;;;;;;2.20;0.82;;;12.50;71.00;;;;;;7274770;32;20196;-57
2023/04/03 10:26:07;;;;;;;3.83;0.90;;;12.10;71.80;;;;;;7258988;32;21100;-57
2023/04/03 10:30:18;;;;;;;2.85;0.80;;;11.00;68.80;;;;;;7273335;32;20285;-57
2023/04/03 10:34:24;;;;;;;2.37;1.00;;;11.20;72.20;;;;;;7277373;32;20128;-57
2023/04/03 10:38:59;;;;;;;2.75;1.15;;;12.00;67.20;;;;;;7266797;32;20104;-57
2023/04/03 10:43:00;;;;;;;2.25;0.90;;;12.20;66.60;;;;;;7261411;32;20153;-56
2023/04/03 10:47:10;;;;;;;2.78;1.05;;;11.50;66.20;;;;;;7280250;32;20472;-57
2023/04/03 10:51:20;;;;;;;2.97;1.00;;;11.90;66.20;;;;;;7276365;32;20655;-56
2023/04/03 10:55:31;;;;;;;6.45;0.90;;;10.80;68.00;;;;;;7272996;32;20118;-57
2023/04/03 10:59:48;;;;;;;2.60;0.82;;;11.50;68.40;;;;;;7274516;32;20225;-57
2023/04/03 11:03:54;;;;;;;3.90;1.00;;;11.20;68.30;;;;;;7275914;32;20135;-57
2023/04/03 11:08:02;;;;;;;1.92;0.85;;;11.20;67.00;;;;;;7276266;32;20493;-57
2023/04/03 11:12:16;;;;;;;2.95;1.23;;;11.60;67.30;;;;;;7280794;32;20191;-57
2023/04/03 11:16:26;;;;;;;3.08;0.82;;;12.50;64.80;;;;;;7275037;32;20174;-56
2023/04/03 11:20:32;;;;;;;3.33;0.80;;;12.70;64.30;;;;;;7275298;32;20182;-57
2023/04/03 11:24:38;;;;;;;3.10;0.75;;;12.30;60.10;;;;;;7286298;32;20274;-57
2023/04/03 11:28:40;;;;;;;5.60;1.08;;;11.90;61.90;;;;;;7279502;32;20166;-57
2023/04/03 11:33:08;;;;;;;3.03;0.90;;;12.40;62.90;;;;;;7277276;32;20522;-57
2023/04/03 11:37:41;;;;;;;1.67;0.80;;;12.70;57.70;;;;;;7251337;32;20738;-59
2023/04/03 11:41:42;;;;;;;1.55;0.60;;;12.00;59.60;;;;;;7284132;32;20125;-57
2023/04/03 11:45:55;;;;;;;3.15;0.75;;;12.60;57.00;;;;;;7281580;32;20203;-57
2023/04/03 11:49:59;;;;;;;3.10;0.90;;;13.40;59.20;;;;;;7288138;32;20120;-57
2023/04/03 11:54:39;;;;;;;3.55;0.80;;;13.50;59.00;;;;;;7291400;32;20125;-57
2023/04/03 11:59:04;;;;;;;3.87;0.80;;;13.30;57.10;;;;;;7286401;32;20176;-57
2023/04/03 12:03:36;;;;;;;3.78;0.82;;;13.50;55.50;;;;;;7285299;32;20115;-60
2023/04/03 12:07:39;;;;;;;3.00;0.82;;;14.00;56.00;;;;;;7283015;32;20466;-57
2023/04/03 12:11:41;;;;;;;2.78;0.80;;;13.00;55.60;;;;;;7279210;32;20245;-57
2023/04/03 12:15:51;;;;;;;2.42;0.70;;;13.90;57.10;;;;;;7285159;32;20100;-56
2023/04/03 12:19:52;;;;;;;2.00;0.70;;;13.90;53.60;;;;;;7287741;32;20165;-57
2023/04/03 12:24:08;;;;;;;4.12;0.90;;;14.00;54.10;;;;;;7283367;32;20263;-57
2023/04/03 12:28:11;;;;;;;2.30;0.80;;;13.10;52.60;;;;;;7284472;32;20583;-57
2023/04/03 12:32:39;;;;;;;2.60;0.65;;;13.80;54.10;;;;;;7283739;32;20577;-57
2023/04/03 12:37:35;;;;;;;2.08;0.80;;;14.00;54.30;;;;;;7277198;32;20704;-57
2023/04/03 12:42:01;;;;;;;3.10;0.60;;;14.20;53.40;;;;;;7254831;32;20278;-58
2023/04/03 12:46:09;;;;;;;1.42;0.65;;;14.60;52.90;;;;;;7276612;32;20115;-57
2023/04/03 12:50:26;;;;;;;2.17;0.70;;;14.10;53.10;;;;;;7285138;32;20211;-57
2023/04/03 12:54:40;;;;;;;1.42;0.80;;;14.50;50.80;;;;;;7283226;32;20124;-57
2023/04/03 12:58:42;;;;;;;1.48;0.60;;;13.80;51.90;;;;;;7278352;32;20216;-57
2023/04/03 13:02:46;;;;;;;2.33;0.60;;;13.50;51.30;;;;;;7273716;32;20225;-57
2023/04/03 13:06:48;;;;;;;3.60;0.90;;;12.40;54.70;;;;;;7274519;32;20140;-57
2023/04/03 13:11:11;;;;;;;1.42;0.80;;;12.10;55.00;;;;;;7279651;32;20483;-57
2023/04/03 13:15:20;;;;;;;2.55;0.82;;;12.50;56.00;;;;;;7280965;32;20684;-55
2023/04/03 13:19:25;;;;;;;3.17;0.80;;;12.20;54.90;;;;;;7286437;32;20108;-56
2023/04/03 13:23:31;;;;;;;;;;;11.80;56.00;;;;;;7277638;32;20118;-55
2023/04/03 13:27:33;;;;;;;2.50;1.00;;;12.30;56.90;;;;;;7277380;32;20065;-56
2023/04/03 13:31:38;;;;;;;1.83;0.88;;;12.30;58.70;;;;;;7283008;32;20209;-56
2023/04/03 13:35:41;;;;;;;2.92;0.90;;;12.50;57.00;;;;;;7275774;32;20116;-56
2023/04/03 13:39:43;;;;;;;2.60;0.90;;;13.00;57.70;;;;;;7272797;32;20344;-56
2023/04/03 13:43:44;;;;;;;3.08;0.90;;;13.70;54.50;;;;;;7277022;32;20332;-56
2023/04/03 13:47:48;;;;;;;3.15;1.02;;;13.20;55.00;;;;;;7280970;32;20180;-57
2023/04/03 13:51:51;;;;;;;3.45;0.80;;;13.70;56.50;;;;;;7276486;32;20773;-56
2023/04/03 13:56:16;;;;;;;2.47;0.93;;;14.40;54.80;;;;;;7275845;32;20210;-56
2023/04/03 14:00:51;;;;;;;3.45;1.23;;;13.60;53.20;;;;;;7278858;32;20481;-56
2023/04/03 14:04:59;;;;;;;2.78;1.15;;;13.20;55.40;;;;;;7278217;32;20584;-57
2023/04/03 14:09:01;;;;;;;3.08;1.25;;;13.90;54.20;;;;;;7277069;32;20168;-57
2023/04/03 14:13:03;;;;;;;3.22;0.90;;;13.90;54.50;;;;;;7275397;32;20219;-56
2023/04/03 14:17:16;;;;;;;3.33;0.90;;;13.90;54.10;;;;;;7275177;32;20175;-55
2023/04/03 14:21:26;;;;;;;4.85;0.80;;;13.20;54.40;;;;;;7271983;32;20154;-56
2023/04/03 14:25:28;;;;;;;1.75;0.70;;;12.40;56.80;;;;;;7270766;32;20176;-55
2023/04/03 14:29:30;;;;;;;5.37;0.80;;;12.00;55.90;;;;;;7277112;32;20357;-55
2023/04/03 14:33:34;;;;;;;2.35;0.98;;;12.10;58.70;;;;;;7275050;32;20572;-55
2023/04/03 14:37:36;;;;;;;2.60;0.82;;;12.60;56.80;;;;;;7272324;32;20130;-56
2023/04/03 14:41:38;;;;;;;3.70;0.90;;;12.30;57.70;;;;;;7278610;32;20116;-56
2023/04/03 14:45:40;;;;;;;2.90;0.98;;;10.70;61.80;;;;;;7262399;32;20558;-56
2023/04/03 14:49:43;;;;;;;2.75;0.70;;;10.10;63.80;;;;;;7282802;32;20211;-55
2023/04/03 14:53:45;;;;;;;2.08;0.70;;;9.40;64.70;;;;;;7277815;32;20658;-56
2023/04/03 14:57:47;;;;;;;2.90;0.70;;;9.20;68.40;;;;;;7267341;32;20103;-57
2023/04/03 15:01:49;;;;;;;1.80;0.62;;;8.80;66.90;;;;;;7275296;32;20226;-56
2023/04/03 15:05:51;;;;;;;5.40;0.88;;;8.80;71.30;;;;;;7276019;32;20142;-57
2023/04/03 15:09:53;;;;;;;2.53;0.80;;;8.80;70.50;;;;;;7277097;32;20153;-56
2023/04/03 15:13:55;;;;;;;2.37;0.73;;;8.50;70.70;;;;;;7279162;32;20380;-56
2023/04/03 15:17:57;;;;;;;3.15;0.88;;;8.60;72.00;;;;;;7266283;32;20278;-56
2023/04/03 15:21:59;;;;;;;3.67;0.80;;;8.70;73.10;;;;;;7267214;32;20159;-57
2023/04/03 15:26:01;;;;;;;3.83;0.93;;;8.60;70.60;;;;;;7283241;32;20097;-57
2023/04/03 15:30:05;;;;;;;2.78;1.27;;;8.50;70.70;;;;;;7278180;32;20172;-57
2023/04/03 15:34:07;;;;;;;4.28;0.77;;;8.50;72.20;;;;;;7281429;32;20122;-57
2023/04/03 15:38:10;;;;;;;5.35;0.90;;;8.40;71.40;;;;;;7281920;32;20153;-57
2023/04/03 15:42:12;;;;;;;4.00;0.90;;;8.40;74.70;;;;;;7279121;32;20211;-57
2023/04/03 15:46:14;;;;;;;3.28;1.00;;;8.30;74.40;;;;;;7269190;32;20144;-55
2023/04/03 15:50:16;;;;;;;2.72;0.90;;;8.40;78.00;;;;;;7262102;32;20213;-56
2023/04/03 15:54:18;;;;;;;3.60;0.62;;;8.20;76.00;;;;;;7281203;32;20095;-57
2023/04/03 15:58:20;;;;;;;4.05;1.08;;;8.10;75.20;;;;;;7264881;32;20179;-56
2023/04/03 16:02:22;;;;;;;2.42;1.05;;;8.20;75.20;;;;;;7274004;32;20610;-58
2023/04/03 16:06:25;;;;;;;3.72;0.70;;;7.90;75.30;;;;;;7283878;32;20188;-57
2023/04/03 16:10:27;;;;;;;2.33;0.73;;;8.00;78.30;;;;;;7276963;32;20173;-57
2023/04/03 16:14:30;;;;;;;3.60;0.90;;;7.90;77.30;;;;;;7280240;32;20161;-57
2023/04/03 16:18:33;;;;;;;2.60;1.08;;;7.80;77.20;;;;;;7269220;32;20771;-57
2023/04/03 16:22:36;;;;;;;5.03;1.08;;;7.70;76.80;;;;;;7275472;32;20191;-57
2023/04/03 16:26:38;;;;;;;3.17;1.10;;;7.60;78.70;;;;;;7275034;32;21008;-57
2023/04/03 16:30:41;;;;;;;2.58;0.90;;;7.60;78.60;;;;;;7275836;32;20115;-57
2023/04/03 16:34:43;;;;;;;3.03;1.05;;;7.50;81.40;;;;;;7273386;32;20162;-57
2023/04/03 16:38:45;;;;;;;6.57;0.90;;;7.50;82.00;;;;;;7271758;32;20601;-57
2023/04/03 16:42:47;;;;;;;3.97;0.90;;;7.50;81.40;;;;;;7280340;32;20218;-58
2023/04/03 16:46:49;;;;;;;5.90;0.80;;;7.50;81.60;;;;;;7273561;32;20128;-57
2023/04/03 16:50:53;;;;;;;2.97;0.80;;;7.40;80.30;;;;;;7277808;32;20200;-57
2023/04/03 16:54:55;;;;;;;2.85;1.10;;;7.50;82.20;;;;;;7276989;32;20198;-57
2023/04/03 16:58:57;;;;;;;3.08;0.80;;;7.30;81.80;;;;;;7278921;32;20120;-57
2023/04/03 17:02:59;;;;;;;1.98;0.80;;;7.20;81.60;;;;;;7285418;32;20641;-57
2023/04/03 17:07:05;;;;;;;4.10;1.10;;;7.10;82.20;;;;;;7286162;32;20119;-57
2023/04/03 17:11:07;;;;;;;2.08;0.85;;;7.00;84.20;;;;;;7280713;32;20126;-57
2023/04/03 17:15:09;;;;;;;3.85;1.10;;;6.90;84.90;;;;;;7285934;32;20141;-57
2023/04/03 17:19:11;;;;;;;3.65;1.02;;;6.90;88.40;;;;;;7269585;32;20176;-57
2023/04/03 17:23:13;;;;;;;2.58;1.00;;;6.70;87.70;;;;;;7289376;32;20092;-57
2023/04/03 17:27:15;;;;;;;2.60;0.70;;;6.80;85.30;;;;;;7275666;32;20266;-57
2023/04/03 17:31:17;;;;;;;2.37;0.70;;;6.70;86.90;;;;;;7274670;32;20232;-58
2023/04/03 17:35:19;;;;;;;2.70;0.88;;;6.60;87.40;;;;;;7288546;32;20256;-57
2023/04/03 17:39:20;;;;;;;1.87;0.90;;;6.50;87.50;;;;;;7287998;32;20234;-55
2023/04/03 17:43:22;;;;;;;1.33;0.80;;;6.40;88.20;;;;;;7269160;32;20225;-56
2023/04/03 17:47:24;;;;;;;1.83;0.70;;;6.30;89.60;;;;;;7266069;32;20190;-53
2023/04/03 17:51:27;;;;;;;3.67;1.30;;;6.10;91.20;;;;;;7285864;32;20304;-57
2023/04/03 17:55:28;;;;;;;2.60;1.05;;;6.10;91.50;;;;;;7288279;32;20208;-56
2023/04/03 17:59:30;;;;;;;6.95;1.12;;;6.00;91.50;;;;;;7280574;32;20528;-56
2023/04/03 18:03:32;;;;;;;5.05;1.12;;;5.90;92.40;;;;;;7273665;32;20104;-56
2023/04/03 18:07:36;;;;;;;6.37;1.33;;;5.80;92.50;;;;;;7281017;32;20194;-57
2023/04/03 18:11:38;;;;;;;4.62;1.00;;;5.70;94.80;;;;;;7281959;32;20196;-58
2023/04/03 18:15:44;;;;;;;4.03;1.58;;;5.70;93.70;;;;;;7288219;32;20893;-56
2023/04/03 18:19:47;;;;;;;6.65;2.58;;;5.50;94.40;;;;;;7282216;32;20212;-55
2023/04/03 18:23:52;;;;;;;3.83;1.05;;;5.40;95.70;;;;;;7268075;32;20135;-55
2023/04/03 18:27:54;;;;;;;3.05;0.65;;;5.40;95.60;;;;;;7289524;32;20175;-57
2023/04/03 18:31:57;;;;;;;3.65;1.30;;;5.40;96.00;;;;;;7277188;32;20147;-57
2023/04/03 18:35:59;;;;;;;4.25;1.30;;;5.30;97.20;;;;;;7269659;32;20665;-57
2023/04/03 18:40:01;;;;;;;5.32;1.90;;;5.20;97.90;;;;;;7282666;32;20261;-57
2023/04/03 18:44:08;;;;;;;4.60;1.50;;;5.10;97.70;;;;;;7280282;32;20108;-57
2023/04/03 18:48:10;;;;;;;3.75;1.15;;;5.20;98.10;;;;;;7287505;32;20132;-57
2023/04/03 18:52:12;;;;;;;5.03;1.33;;;5.00;99.10;;;;;;7284303;32;20127;-57
2023/04/03 18:56:15;;;;;;;5.95;1.08;;;4.90;99.00;;;;;;7288635;32;20617;-57
2023/04/03 19:00:17;;;;;;;2.95;1.10;;;4.80;99.90;;;;;;7285328;32;20581;-57
2023/04/03 19:04:19;;;;;;;5.30;1.12;;;4.90;99.90;;;;;;7298530;32;20181;-55
2023/04/03 19:08:22;;;;;;;4.62;1.60;;;4.80;99.90;;;;;;7284277;32;20133;-55
2023/04/03 19:12:24;;;;;;;3.33;1.80;;;4.80;99.90;;;;;;7283629;32;20138;-55
2023/04/03 19:16:26;;;;;;;5.37;1.33;;;4.70;99.90;;;;;;7288538;32;20115;-56
2023/04/03 19:20:28;;;;;;;4.53;1.55;;;4.70;99.90;;;;;;7273721;32;20138;-55
2023/04/03 19:24:30;;;;;;;4.20;1.23;;;4.70;99.90;;;;;;7285281;32;20132;-56
2023/04/03 19:28:32;;;;;;;3.33;1.50;;;4.70;99.90;;;;;;7273278;32;20139;-55
2023/04/03 19:32:34;;;;;;;4.20;1.33;;;4.60;99.90;;;;;;7288902;32;20764;-55
2023/04/03 19:36:36;;;;;;;4.10;1.10;;;4.50;99.90;;;;;;7287993;32;20276;-55
2023/04/03 19:40:42;;;;;;;4.30;1.75;;;4.50;99.90;;;;;;7290159;32;20155;-58
2023/04/03 19:44:45;;;;;;;4.93;1.20;;;4.50;99.90;;;;;;7284208;32;20138;-55
2023/04/03 19:48:47;;;;;;;6.97;1.00;;;4.50;99.90;;;;;;7279859;32;20267;-54
2023/04/03 19:52:49;;;;;;;2.75;1.12;;;4.40;99.90;;;;;;7288609;32;20795;-55
2023/04/03 19:56:51;;;;;;;4.07;0.85;;;4.30;99.90;;;;;;7269439;32;20111;-54
2023/04/03 20:00:52;;;;;;;3.40;1.10;;;4.30;99.90;;;;;;7282378;32;20493;-55
2023/04/03 20:04:56;;;;;;;3.30;1.00;;;4.20;99.90;;;;;;7284256;32;20519;-55
2023/04/03 20:08:58;;;;;;;5.68;1.80;;;4.20;99.90;;;;;;7276146;32;20140;-55
2023/04/03 20:13:00;;;;;;;2.30;0.80;;;4.10;99.90;;;;;;7278606;32;20142;-54
2023/04/03 20:17:03;;;;;;;4.97;0.90;;;4.00;99.90;;;;;;7282399;32;20294;-55
2023/04/03 20:21:06;;;;;;;4.72;0.80;;;3.90;99.90;;;;;;7286772;32;20136;-56
2023/04/03 20:25:11;;;;;;;3.37;1.02;;;3.90;99.90;;;;;;7282539;32;20104;-55
2023/04/03 20:29:18;;;;;;;4.65;0.95;;;3.80;99.90;;;;;;7280148;32;20157;-55
2023/04/03 20:33:21;;;;;;;2.35;1.27;;;3.80;99.90;;;;;;7282299;32;20299;-55
2023/04/03 20:37:22;;;;;;;6.10;1.20;;;3.80;99.90;;;;;;7285814;32;20132;-55
2023/04/03 20:41:24;;;;;;;6.10;1.80;;;3.70;99.90;;;;;;7282776;32;20108;-55
2023/04/03 20:45:27;;;;;;;1.87;0.90;;;3.60;99.90;;;;;;7282109;32;20161;-56
2023/04/03 20:49:28;;;;;;;7.00;1.58;;;3.60;99.90;;;;;;7286167;32;20116;-55
2023/04/03 20:53:30;;;;;;;3.28;1.00;;;3.60;99.90;;;;;;7280515;32;20124;-55
2023/04/03 20:57:33;;;;;;;4.20;1.37;;;3.60;99.90;;;;;;7277884;32;20712;-55
2023/04/03 21:01:35;;;;;;;3.10;1.00;;;3.50;99.90;;;;;;7282244;32;20135;-55
2023/04/03 21:05:37;;;;;;;4.93;1.20;;;3.40;99.90;;;;;;7275816;32;20155;-55
2023/04/03 21:10:17;;;;;;;3.80;1.30;;;3.30;99.90;;;;;;7271322;32;20119;-55
2023/04/03 21:14:57;;;;;;;5.07;1.23;;;3.30;99.90;;;;;;7267550;32;20299;-55
2023/04/03 21:19:11;;;;;;;5.57;1.05;;;3.30;99.90;;;;;;7266870;32;20112;-54
2023/04/03 21:23:13;;;;;;;2.50;1.00;;;3.30;99.90;;;;;;7276662;32;20158;-55
2023/04/03 21:27:15;;;;;;;4.55;1.30;;;3.20;99.90;;;;;;7267995;32;20279;-55